Port Erroll, United Kingdom
Current Conditions -  °F | °C
As of 9:50 AM on Friday 28 Nov 2014 (Local Time) from EGPD Reporting Station
Broken Clouds Broken Clouds  
Wind Chill: 50°   Ceiling: 500
Heat Index: 50°   Visibility: 4mi
Dew Point: 48°   Wind: 16mph
Humidity: 94%   Direction: 130°SE
Pressure: 29.83"   Gusts: NA
Location:  57.42°N, 1.83°W
Report Text: EGPD 280950Z 13014KT 6000 BKN005 10/09 Q1010 NOSIG
Loading
Personal Weather Stations






























Interactive Weather Map New forecast layout! Learn more

10-Day Weather Forecast

Advertisements
Track Severe Weather on mobile